Time;durP1;ratioP1;P1;durP2;ratioP2;P2;SDS_P1;SDS_P2;PMS_P1;PMS_P2;Temp;Humidity;BMP_temperature;BMP_pressure;BME280_temperature;BME280_humidity;BME280_pressure;Samples;Min_cycle;Max_cycle;Signal;HPM_P1;HPM_P2
2023/10/09 00:01:33;;;;;;;10.40;4.50;;;14.20;99.90;;;;;;5037478;28;20435;-60
2023/10/09 00:03:53;;;;;;;9.90;4.90;;;14.20;99.90;;;;;;5051240;28;20400;-60
2023/10/09 00:06:31;;;;;;;11.70;5.40;;;14.10;99.90;;;;;;5052816;28;20119;-60
2023/10/09 00:08:58;;;;;;;11.32;5.15;;;14.10;99.90;;;;;;5038162;28;20559;-62
2023/10/09 00:11:29;;;;;;;11.05;5.47;;;14.10;99.90;;;;;;5029132;28;20054;-60
2023/10/09 00:13:58;;;;;;;10.70;4.57;;;14.10;99.90;;;;;;5047029;28;20498;-60
2023/10/09 00:16:47;;;;;;;9.88;4.65;;;14.10;99.90;;;;;;5044743;28;20055;-61
2023/10/09 00:19:17;;;;;;;13.90;5.40;;;14.10;99.90;;;;;;5035013;28;20494;-61
2023/10/09 00:21:46;;;;;;;12.18;6.10;;;14.10;99.90;;;;;;5036229;28;20511;-60
2023/10/09 00:24:13;;;;;;;11.70;6.70;;;14.10;99.90;;;;;;5019755;28;20055;-60
2023/10/09 00:26:49;;;;;;;13.80;6.32;;;14.20;99.90;;;;;;5019448;28;20076;-60
2023/10/09 00:29:21;;;;;;;13.88;5.90;;;14.10;99.90;;;;;;5019887;28;20032;-61
2023/10/09 00:31:51;;;;;;;13.57;5.97;;;14.20;99.90;;;;;;5015987;28;20041;-61
2023/10/09 00:34:21;;;;;;;15.68;6.82;;;14.20;99.90;;;;;;5025956;28;20483;-60
2023/10/09 00:36:51;;;;;;;14.65;7.10;;;14.20;99.90;;;;;;5031607;28;20060;-61
2023/10/09 00:40:12;;;;;;;16.25;6.88;;;14.20;99.90;;;;;;5015048;28;20142;-61
2023/10/09 00:42:07;;;;;;;13.75;6.63;;;14.20;99.90;;;;;;5006129;28;22025;-61
2023/10/09 00:44:39;;;;;;;12.80;6.65;;;14.20;99.90;;;;;;5031622;28;20049;-61
2023/10/09 00:47:22;;;;;;;13.35;7.30;;;14.20;99.90;;;;;;4996181;28;20060;-60
2023/10/09 00:49:59;;;;;;;17.30;7.15;;;14.20;99.90;;;;;;5032507;28;20078;-60
2023/10/09 00:52:39;;;;;;;14.02;7.28;;;14.20;99.90;;;;;;5008963;28;20049;-62
2023/10/09 00:55:27;;;;;;;18.50;7.97;;;14.20;99.90;;;;;;5024404;28;20037;-61
2023/10/09 00:57:59;;;;;;;17.95;8.25;;;14.20;99.90;;;;;;5024762;28;20037;-61
2023/10/09 01:00:32;;;;;;;17.20;8.07;;;14.20;99.90;;;;;;5032508;28;20053;-60
2023/10/09 01:08:31;;;;;;;18.15;8.05;;;14.30;99.90;;;;;;5036559;28;20502;-60
2023/10/09 01:11:08;;;;;;;21.15;8.63;;;14.30;99.90;;;;;;5018327;28;20433;-61
2023/10/09 01:14:22;;;;;;;20.75;8.98;;;14.30;99.90;;;;;;5031539;28;20036;-61
2023/10/09 01:16:31;;;;;;;23.85;10.18;;;14.30;99.90;;;;;;5021458;28;20049;-61
2023/10/09 01:18:57;;;;;;;24.50;10.27;;;14.30;99.90;;;;;;5015649;28;20135;-60
2023/10/09 01:21:24;;;;;;;19.30;10.27;;;14.30;99.90;;;;;;5030427;28;21282;-60
2023/10/09 01:24:03;;;;;;;24.50;11.20;;;14.30;99.90;;;;;;5000100;28;20041;-61
2023/10/09 01:26:40;;;;;;;26.65;10.50;;;14.30;99.90;;;;;;5012201;28;20052;-60
2023/10/09 01:29:14;;;;;;;26.52;10.60;;;14.30;99.90;;;;;;5036040;28;20109;-61
2023/10/09 01:31:56;;;;;;;25.42;11.13;;;14.30;99.90;;;;;;5049442;28;20384;-60
2023/10/09 01:34:44;;;;;;;29.88;13.13;;;14.30;99.90;;;;;;5051859;28;20038;-61
2023/10/09 01:37:25;;;;;;;33.95;14.27;;;14.30;99.90;;;;;;5040349;28;20079;-60
2023/10/09 01:39:59;;;;;;;36.08;14.68;;;14.30;99.90;;;;;;5055097;28;20532;-61
2023/10/09 01:44:52;;;;;;;34.25;14.85;;;14.30;99.90;;;;;;5044914;28;20045;-60
2023/10/09 01:47:21;;;;;;;33.55;14.20;;;14.30;99.90;;;;;;5039925;28;20427;-61
2023/10/09 01:49:53;;;;;;;34.92;15.02;;;14.30;99.90;;;;;;5056591;28;20036;-61
2023/10/09 01:52:20;;;;;;;31.15;14.15;;;14.30;99.90;;;;;;5054079;28;20091;-61
2023/10/09 01:54:50;;;;;;;36.53;15.73;;;14.30;99.90;;;;;;5039962;28;20378;-61
2023/10/09 01:57:22;;;;;;;33.67;15.00;;;14.30;99.90;;;;;;5007529;28;20475;-61
2023/10/09 01:59:53;;;;;;;34.33;15.05;;;14.30;99.90;;;;;;5054488;28;20040;-62
2023/10/09 02:02:35;;;;;;;28.60;14.75;;;14.30;99.90;;;;;;5013854;28;20151;-61
2023/10/09 02:05:23;;;;;;;38.77;15.23;;;14.30;99.90;;;;;;5040196;28;20036;-60
2023/10/09 02:07:51;;;;;;;30.77;13.82;;;14.30;99.90;;;;;;5049524;28;20040;-60
2023/10/09 02:10:31;;;;;;;33.53;14.90;;;14.30;99.90;;;;;;5038708;28;20162;-61
2023/10/09 02:13:06;;;;;;;33.08;15.43;;;14.30;99.90;;;;;;5037304;28;20044;-61
2023/10/09 02:18:26;;;;;;;31.52;15.40;;;14.30;99.90;;;;;;5037462;28;20429;-61
2023/10/09 02:23:30;;;;;;;31.83;16.10;;;14.30;99.90;;;;;;5039758;28;20040;-61
2023/10/09 02:25:57;;;;;;;29.23;15.73;;;14.30;99.90;;;;;;5052958;28;20051;-61
2023/10/09 02:28:23;;;;;;;39.28;16.63;;;14.30;99.90;;;;;;5037763;28;20071;-61
2023/10/09 02:30:49;;;;;;;37.03;17.13;;;14.30;99.90;;;;;;5035640;28;20123;-61
2023/10/09 02:33:27;;;;;;;33.72;17.08;;;14.30;99.90;;;;;;5040113;28;20578;-61
2023/10/09 02:35:55;;;;;;;38.95;17.17;;;14.20;99.90;;;;;;5039573;28;20040;-61
2023/10/09 02:38:23;;;;;;;38.15;18.98;;;14.20;99.90;;;;;;5040302;28;20186;-61
2023/10/09 02:43:44;;;;;;;39.67;19.38;;;14.30;99.90;;;;;;5049990;28;20242;-60
2023/10/09 02:46:17;;;;;;;39.95;19.02;;;14.20;99.90;;;;;;5028018;28;20044;-61
2023/10/09 02:48:52;;;;;;;38.58;19.55;;;14.20;99.90;;;;;;5049942;28;20039;-60
2023/10/09 02:53:57;;;;;;;41.80;20.33;;;14.20;99.90;;;;;;5032936;28;20048;-60
2023/10/09 02:56:24;;;;;;;47.10;20.60;;;14.30;99.90;;;;;;5050928;28;20048;-61
2023/10/09 02:58:53;;;;;;;42.70;21.10;;;14.30;99.90;;;;;;5048001;28;20098;-60
2023/10/09 03:01:19;;;;;;;39.60;20.15;;;14.30;99.90;;;;;;5038232;28;20036;-60
2023/10/09 03:03:46;;;;;;;47.20;21.67;;;14.30;99.90;;;;;;5049582;28;20040;-60
2023/10/09 03:06:28;;;;;;;46.08;22.48;;;14.30;99.90;;;;;;5049394;28;20044;-60
2023/10/09 03:08:54;;;;;;;50.90;22.38;;;14.30;99.90;;;;;;5030581;28;20033;-61
2023/10/09 03:11:20;;;;;;;46.20;21.60;;;14.30;99.90;;;;;;5048402;28;20040;-61
2023/10/09 03:13:47;;;;;;;49.25;22.00;;;14.30;99.90;;;;;;5053095;28;20040;-60
2023/10/09 03:16:19;;;;;;;46.45;22.77;;;14.40;99.90;;;;;;5050280;28;20414;-61
2023/10/09 03:18:51;;;;;;;42.05;21.75;;;14.40;99.90;;;;;;5048401;28;20697;-61
2023/10/09 03:21:17;;;;;;;41.65;22.65;;;14.40;99.90;;;;;;5054848;28;20060;-61
2023/10/09 03:23:50;;;;;;;50.60;22.70;;;14.40;99.90;;;;;;5057209;28;20078;-61
2023/10/09 03:26:20;;;;;;;48.30;22.75;;;14.50;99.90;;;;;;5038091;28;20044;-61
2023/10/09 03:28:47;;;;;;;51.17;23.70;;;14.40;99.90;;;;;;5034711;28;20110;-60
2023/10/09 03:31:13;;;;;;;46.22;22.67;;;14.40;99.90;;;;;;5033430;28;20536;-61
2023/10/09 03:33:40;;;;;;;52.75;23.27;;;14.50;99.90;;;;;;5038844;28;20044;-60
2023/10/09 03:36:09;;;;;;;50.75;25.15;;;14.50;99.90;;;;;;5023307;28;20044;-61
2023/10/09 03:38:38;;;;;;;57.72;24.52;;;14.60;99.90;;;;;;5038236;28;20040;-60
2023/10/09 03:41:05;;;;;;;48.30;23.60;;;14.60;99.90;;;;;;5051270;28;20047;-60
2023/10/09 03:43:42;;;;;;;51.67;24.77;;;14.60;99.90;;;;;;5037047;28;20044;-61
2023/10/09 03:46:32;;;;;;;49.72;23.98;;;14.70;99.90;;;;;;5035431;28;20043;-59
2023/10/09 03:48:56;;;;;;;51.25;25.40;;;14.80;99.90;;;;;;5036681;28;20403;-60
2023/10/09 03:51:23;;;;;;;48.65;23.98;;;14.80;99.90;;;;;;5038581;28;20052;-61
2023/10/09 03:53:50;;;;;;;49.97;24.33;;;14.90;99.90;;;;;;5035864;28;20037;-60
2023/10/09 03:56:17;;;;;;;48.33;24.02;;;14.90;99.90;;;;;;5040029;28;20041;-60
2023/10/09 03:58:49;;;;;;;47.33;23.73;;;15.00;99.90;;;;;;5037601;28;20051;-60
2023/10/09 04:01:22;;;;;;;47.30;23.48;;;15.00;99.90;;;;;;5048552;28;20044;-61
2023/10/09 04:03:54;;;;;;;42.15;23.08;;;15.00;99.90;;;;;;5033623;28;20044;-61
2023/10/09 04:06:28;;;;;;;45.10;23.02;;;15.10;99.90;;;;;;5038370;28;20046;-60
2023/10/09 04:08:54;;;;;;;38.85;20.92;;;15.20;99.90;;;;;;5057906;28;20036;-59
2023/10/09 04:11:23;;;;;;;44.55;21.58;;;15.20;99.90;;;;;;5039716;28;20437;-60
2023/10/09 04:13:53;;;;;;;43.05;20.60;;;15.30;99.90;;;;;;5035864;28;20068;-61
2023/10/09 04:19:05;;;;;;;40.55;19.80;;;15.40;99.90;;;;;;5047799;28;20045;-60
2023/10/09 04:21:34;;;;;;;44.78;21.15;;;15.30;99.90;;;;;;5041884;28;20049;-61
2023/10/09 04:26:45;;;;;;;41.05;19.88;;;15.40;99.90;;;;;;5057934;28;20089;-60
2023/10/09 04:29:26;;;;;;;39.13;20.57;;;15.50;99.90;;;;;;5053829;28;20128;-61
2023/10/09 04:31:54;;;;;;;38.55;19.60;;;15.50;99.90;;;;;;5027347;28;20036;-60
2023/10/09 04:34:22;;;;;;;35.47;18.40;;;15.50;99.90;;;;;;5051738;28;20595;-60
2023/10/09 04:36:56;;;;;;;45.60;20.65;;;15.50;99.90;;;;;;5031927;28;20121;-60
2023/10/09 04:47:36;;;;;;;37.75;19.65;;;15.60;99.90;;;;;;5045979;28;20048;-60
2023/10/09 04:50:11;;;;;;;39.45;20.17;;;15.60;99.90;;;;;;5065289;28;20075;-60
2023/10/09 05:02:58;;;;;;;;;;;15.60;99.90;;;;;;5069978;28;20048;-60
2023/10/09 05:08:21;;;;;;;32.70;17.23;;;15.60;99.90;;;;;;5062534;28;20036;-60
2023/10/09 05:16:18;;;;;;;32.03;15.48;;;15.60;99.90;;;;;;5044182;28;20080;-60
2023/10/09 05:19:08;;;;;;;31.60;15.65;;;15.70;99.90;;;;;;5050929;28;20032;-60
2023/10/09 05:29:19;;;;;;;22.10;13.02;;;15.70;99.90;;;;;;5030469;28;20130;-61
2023/10/09 05:35:04;;;;;;;33.80;13.27;;;15.70;99.90;;;;;;5027732;28;20075;-61
2023/10/09 05:37:25;;;;;;;26.80;13.32;;;15.80;99.90;;;;;;5032071;28;20044;-61
2023/10/09 05:47:57;;;;;;;28.17;11.90;;;15.80;99.90;;;;;;5032758;28;20041;-60
2023/10/09 06:03:23;;;;;;;24.05;11.05;;;15.80;99.90;;;;;;5027021;28;20080;-60
2023/10/09 06:08:24;;;;;;;21.80;10.55;;;15.90;99.90;;;;;;5030287;28;20041;-61
2023/10/09 06:11:05;;;;;;;23.77;10.45;;;15.90;99.90;;;;;;5042217;28;20170;-60
2023/10/09 06:13:39;;;;;;;22.65;9.75;;;15.90;99.90;;;;;;5027143;28;20040;-62
2023/10/09 06:16:31;;;;;;;24.25;10.25;;;15.90;99.90;;;;;;5028772;28;20060;-62
2023/10/09 06:19:12;;;;;;;23.92;10.48;;;15.90;99.90;;;;;;5033529;28;20617;-62
2023/10/09 06:26:36;;;;;;;24.08;9.60;;;15.90;99.90;;;;;;5053511;28;20086;-62
2023/10/09 06:29:14;;;;;;;24.70;9.32;;;15.90;99.90;;;;;;5039075;28;20036;-62
2023/10/09 06:31:58;;;;;;;20.58;8.90;;;16.00;99.90;;;;;;5037720;28;20166;-61
2023/10/09 06:34:35;;;;;;;24.17;9.80;;;16.00;99.90;;;;;;5024565;28;20052;-62
2023/10/09 06:38:21;;;;;;;22.98;9.18;;;16.00;99.90;;;;;;5050124;28;20104;-61
2023/10/09 06:42:43;;;;;;;22.75;9.18;;;16.00;99.90;;;;;;5038261;28;20052;-62
2023/10/09 06:45:18;;;;;;;23.75;9.32;;;16.00;99.90;;;;;;5017477;28;20048;-61
2023/10/09 06:47:55;;;;;;;22.00;8.70;;;16.00;99.90;;;;;;5045651;28;20496;-62
2023/10/09 06:53:57;;;;;;;24.25;8.88;;;16.00;99.90;;;;;;5050893;28;20648;-61
2023/10/09 06:56:05;;;;;;;22.25;8.98;;;16.00;99.90;;;;;;5035714;28;20052;-62
2023/10/09 06:58:41;;;;;;;25.80;8.93;;;16.00;99.90;;;;;;5044648;28;20048;-61
2023/10/09 07:01:28;;;;;;;23.98;9.45;;;16.00;99.90;;;;;;5028442;28;20052;-62
2023/10/09 07:04:18;;;;;;;26.80;9.57;;;16.00;99.90;;;;;;5054265;28;20607;-62
2023/10/09 07:17:26;;;;;;;19.65;8.27;;;16.10;99.90;;;;;;5037579;28;20456;-62
2023/10/09 07:25:14;;;;;;;21.05;9.15;;;16.10;99.90;;;;;;5057029;28;20052;-61
2023/10/09 07:27:48;;;;;;;21.23;8.65;;;16.10;99.90;;;;;;5044915;28;20109;-61
2023/10/09 07:38:10;;;;;;;19.58;9.13;;;16.10;99.90;;;;;;5047557;28;20055;-62
2023/10/09 07:40:55;;;;;;;21.67;8.93;;;16.20;99.90;;;;;;5021413;28;20155;-61
2023/10/09 07:43:26;;;;;;;19.60;9.00;;;16.20;99.90;;;;;;5039045;28;20059;-62
2023/10/09 07:48:36;;;;;;;24.70;8.30;;;16.20;99.90;;;;;;5039084;28;20696;-61
2023/10/09 07:51:11;;;;;;;24.00;8.65;;;16.20;99.90;;;;;;5039616;28;20051;-62
2023/10/09 07:53:45;;;;;;;20.90;8.75;;;16.20;99.90;;;;;;5036734;28;20040;-62
2023/10/09 07:56:14;;;;;;;17.75;8.35;;;16.20;99.90;;;;;;5041395;28;20541;-61
2023/10/09 07:58:46;;;;;;;24.95;8.20;;;16.20;99.90;;;;;;5038483;28;20047;-61
2023/10/09 08:01:16;;;;;;;21.53;8.37;;;16.20;99.90;;;;;;5024977;28;20677;-62
2023/10/09 08:03:57;;;;;;;19.67;8.57;;;16.20;99.90;;;;;;5034976;28;21379;-61
2023/10/09 08:06:39;;;;;;;22.05;8.15;;;16.20;99.90;;;;;;5041056;28;20115;-62
2023/10/09 08:12:13;;;;;;;18.88;7.97;;;16.30;99.90;;;;;;5038318;28;20051;-62
2023/10/09 08:17:21;;;;;;;24.13;8.02;;;16.30;99.90;;;;;;5039884;28;20052;-61
2023/10/09 08:19:54;;;;;;;28.40;8.77;;;16.30;99.90;;;;;;5036346;28;20091;-62
2023/10/09 08:24:58;;;;;;;22.45;8.30;;;16.30;99.90;;;;;;5042778;28;20049;-62
2023/10/09 08:33:05;;;;;;;25.27;8.95;;;16.30;99.90;;;;;;5041560;28;20391;-61
2023/10/09 08:35:33;;;;;;;24.52;8.25;;;16.30;99.90;;;;;;5028462;28;20055;-61
2023/10/09 08:38:10;;;;;;;20.40;8.48;;;16.30;99.90;;;;;;5047714;28;20561;-61
2023/10/09 08:40:40;;;;;;;19.40;8.63;;;16.30;99.90;;;;;;5006697;28;21250;-60
2023/10/09 08:43:19;;;;;;;22.45;8.52;;;16.40;99.90;;;;;;5040297;28;20401;-62
2023/10/09 08:46:00;;;;;;;24.38;8.20;;;16.40;99.90;;;;;;5036225;28;20409;-61
2023/10/09 08:48:27;;;;;;;25.27;8.60;;;16.40;99.90;;;;;;5040012;28;20380;-61
2023/10/09 08:50:55;;;;;;;24.45;8.32;;;16.40;99.90;;;;;;5019252;28;20035;-62
2023/10/09 08:53:23;;;;;;;25.17;8.45;;;16.40;99.90;;;;;;5018589;28;20082;-61
2023/10/09 08:55:51;;;;;;;26.95;8.63;;;16.50;99.90;;;;;;5038542;28;20044;-61
2023/10/09 08:58:32;;;;;;;19.90;8.45;;;16.50;99.90;;;;;;5039853;28;20040;-61
2023/10/09 09:01:00;;;;;;;24.15;7.80;;;16.60;99.90;;;;;;5025485;28;20036;-62
2023/10/09 09:03:37;;;;;;;20.08;7.57;;;16.60;99.90;;;;;;5041470;28;20055;-61
2023/10/09 09:06:04;;;;;;;21.02;7.97;;;16.60;99.90;;;;;;5045859;28;20036;-61
2023/10/09 09:08:36;;;;;;;19.58;8.18;;;16.60;99.90;;;;;;5041085;28;20051;-61
2023/10/09 09:11:16;;;;;;;19.20;8.32;;;16.70;99.90;;;;;;5049607;28;20546;-62
2023/10/09 09:13:58;;;;;;;21.35;7.38;;;16.70;99.90;;;;;;5040100;28;21551;-61
2023/10/09 09:16:31;;;;;;;19.52;7.18;;;16.70;99.90;;;;;;5043473;28;20066;-62
2023/10/09 09:19:03;;;;;;;20.58;7.65;;;16.70;99.90;;;;;;5039427;28;20044;-61
2023/10/09 09:21:29;;;;;;;20.08;7.32;;;16.70;99.90;;;;;;5049700;28;20048;-61
2023/10/09 09:24:06;;;;;;;21.60;7.28;;;16.70;99.90;;;;;;5043960;28;20040;-62
2023/10/09 09:26:44;;;;;;;20.08;8.15;;;16.70;99.90;;;;;;5055990;28;20062;-61
2023/10/09 09:29:12;;;;;;;17.15;7.22;;;16.70;99.90;;;;;;5038008;28;20040;-62
2023/10/09 09:31:38;;;;;;;18.55;7.40;;;16.80;99.90;;;;;;5054860;28;20036;-61
2023/10/09 09:34:29;;;;;;;18.95;7.28;;;16.80;99.90;;;;;;5039991;28;20380;-61
2023/10/09 09:36:57;;;;;;;18.70;7.82;;;16.80;99.90;;;;;;5035103;28;20055;-63
2023/10/09 09:39:28;;;;;;;21.73;7.82;;;16.80;99.90;;;;;;5039241;28;20441;-63
2023/10/09 09:42:07;;;;;;;17.08;7.13;;;16.80;99.90;;;;;;5050403;28;21449;-62
2023/10/09 09:44:43;;;;;;;18.55;7.53;;;16.90;99.90;;;;;;5036550;28;20533;-63
2023/10/09 09:47:13;;;;;;;22.73;7.70;;;16.90;99.90;;;;;;5030950;28;20049;-63
2023/10/09 09:49:42;;;;;;;19.08;7.03;;;17.00;99.90;;;;;;5053735;28;20071;-62
2023/10/09 09:52:11;;;;;;;13.77;6.40;;;17.00;99.90;;;;;;5056885;28;20036;-63
2023/10/09 09:54:38;;;;;;;18.08;6.70;;;17.00;99.90;;;;;;5008370;28;20040;-63
2023/10/09 09:57:10;;;;;;;17.67;6.43;;;17.00;99.90;;;;;;5040449;28;20097;-63
2023/10/09 09:59:49;;;;;;;17.77;6.35;;;17.00;99.90;;;;;;5043447;28;20059;-63
2023/10/09 10:02:22;;;;;;;18.42;6.05;;;17.00;99.90;;;;;;5038661;28;20075;-63
2023/10/09 10:04:54;;;;;;;21.50;5.85;;;17.00;99.90;;;;;;5053145;28;20387;-64
2023/10/09 10:07:21;;;;;;;19.60;6.28;;;17.00;99.90;;;;;;5040722;28;20124;-63
2023/10/09 10:09:54;;;;;;;18.25;5.85;;;17.00;99.90;;;;;;5018889;28;20121;-63
2023/10/09 10:12:59;;;;;;;19.33;5.82;;;17.00;99.90;;;;;;5035710;28;20177;-63
2023/10/09 10:15:56;;;;;;;15.15;5.55;;;17.00;99.90;;;;;;5036823;28;20048;-63
2023/10/09 10:18:23;;;;;;;15.15;5.72;;;17.00;99.90;;;;;;5036750;28;20087;-63
2023/10/09 10:21:17;;;;;;;19.13;5.60;;;16.90;99.90;;;;;;5057647;28;21660;-63
2023/10/09 10:23:47;;;;;;;15.05;5.68;;;17.00;99.90;;;;;;5033684;28;20045;-63
2023/10/09 10:26:21;;;;;;;16.83;5.78;;;17.00;99.90;;;;;;5041294;28;20049;-63
2023/10/09 10:29:22;;;;;;;16.42;5.18;;;17.00;99.90;;;;;;5036671;28;20435;-63
2023/10/09 10:32:06;;;;;;;16.40;6.03;;;17.00;99.90;;;;;;5037366;28;20544;-63
2023/10/09 10:34:57;;;;;;;20.95;6.25;;;17.00;99.90;;;;;;5047310;28;20345;-63
2023/10/09 10:37:44;;;;;;;18.30;6.22;;;17.10;99.90;;;;;;5060186;28;20467;-63
2023/10/09 10:40:37;;;;;;;23.23;6.25;;;17.10;99.90;;;;;;5060916;28;20044;-63
2023/10/09 10:43:13;;;;;;;15.73;5.65;;;17.10;99.90;;;;;;5049204;28;20131;-63
2023/10/09 10:45:45;;;;;;;13.40;5.47;;;17.10;99.90;;;;;;5047383;28;20087;-63
2023/10/09 10:48:36;;;;;;;19.65;5.88;;;17.10;99.90;;;;;;5022306;28;20033;-63
2023/10/09 10:51:03;;;;;;;13.32;5.57;;;17.10;99.90;;;;;;5024572;28;21160;-63
2023/10/09 10:53:34;;;;;;;16.95;5.95;;;17.10;99.90;;;;;;5028090;28;20364;-63
2023/10/09 10:58:38;;;;;;;15.70;5.88;;;17.00;99.90;;;;;;5048940;28;20048;-63
2023/10/09 11:01:13;;;;;;;21.20;5.85;;;17.10;99.90;;;;;;5030111;28;20051;-63
2023/10/09 11:04:08;;;;;;;21.90;6.07;;;17.00;99.90;;;;;;5009272;28;20048;-63
2023/10/09 11:06:36;;;;;;;19.73;5.68;;;17.00;99.90;;;;;;5026916;28;20047;-63
2023/10/09 11:09:37;;;;;;;19.48;5.75;;;17.00;99.90;;;;;;5044533;28;20047;-63
2023/10/09 11:12:12;;;;;;;16.15;5.28;;;17.00;99.90;;;;;;5024028;28;20049;-63
2023/10/09 11:15:06;;;;;;;23.60;5.32;;;16.90;99.90;;;;;;5045594;28;20701;-63
2023/10/09 11:17:34;;;;;;;17.90;5.25;;;16.90;99.90;;;;;;5021563;28;20146;-61
2023/10/09 11:20:22;;;;;;;15.93;5.93;;;16.90;99.90;;;;;;5007417;28;20049;-62
2023/10/09 11:25:30;;;;;;;30.08;6.15;;;16.90;99.90;;;;;;5040461;28;20060;-62
2023/10/09 11:27:55;;;;;;;24.17;5.03;;;16.90;99.90;;;;;;5010476;28;20514;-61
2023/10/09 11:30:32;;;;;;;20.08;4.97;;;16.90;99.90;;;;;;5039097;28;20040;-62
2023/10/09 11:33:14;;;;;;;14.85;4.47;;;17.00;99.90;;;;;;5025283;28;20229;-61
2023/10/09 11:35:42;;;;;;;20.90;5.70;;;17.00;99.90;;;;;;5021415;28;20510;-62
2023/10/09 11:38:21;;;;;;;17.42;5.22;;;17.20;99.90;;;;;;5026357;28;20052;-62
2023/10/09 11:41:06;;;;;;;15.63;5.13;;;17.30;99.90;;;;;;5022569;28;20064;-62
2023/10/09 11:43:51;;;;;;;14.85;4.72;;;17.30;99.90;;;;;;5025256;28;20732;-62
2023/10/09 11:46:47;;;;;;;17.60;4.10;;;17.40;99.90;;;;;;5025984;28;20387;-62
2023/10/09 11:49:44;;;;;;;13.23;3.67;;;17.40;99.90;;;;;;5019785;28;20040;-61
2023/10/09 11:54:39;;;;;;;17.13;4.60;;;17.30;99.90;;;;;;5012257;28;20057;-62
2023/10/09 11:57:05;;;;;;;15.20;4.10;;;17.30;99.90;;;;;;5020378;28;20044;-62
2023/10/09 11:59:37;;;;;;;13.77;4.07;;;17.30;99.90;;;;;;5024335;28;20044;-62
2023/10/09 12:02:12;;;;;;;16.33;3.88;;;17.20;99.90;;;;;;5004916;28;20047;-61
2023/10/09 12:04:44;;;;;;;17.98;4.28;;;17.20;99.90;;;;;;5024527;28;20044;-62
2023/10/09 12:07:10;;;;;;;14.60;4.10;;;17.20;99.90;;;;;;5025617;28;20048;-62
2023/10/09 12:09:39;;;;;;;18.85;4.20;;;17.10;99.90;;;;;;5021919;28;20052;-62
2023/10/09 12:12:09;;;;;;;10.75;4.00;;;17.10;99.90;;;;;;5025005;28;20138;-62
2023/10/09 12:14:37;;;;;;;14.15;3.55;;;17.10;99.90;;;;;;5036343;28;20524;-61
2023/10/09 12:17:07;;;;;;;13.40;4.78;;;17.10;99.90;;;;;;5035353;28;20079;-62
2023/10/09 12:19:39;;;;;;;9.93;3.78;;;17.10;99.90;;;;;;5027171;28;20059;-62
2023/10/09 12:22:06;;;;;;;12.80;4.13;;;17.10;99.90;;;;;;5041515;28;20383;-62
2023/10/09 12:24:33;;;;;;;15.27;4.53;;;17.10;99.90;;;;;;5039688;28;20055;-62
2023/10/09 12:27:01;;;;;;;12.95;4.10;;;17.10;99.90;;;;;;5021698;28;20064;-62
2023/10/09 12:29:30;;;;;;;9.10;4.00;;;17.10;99.90;;;;;;5005026;28;20073;-62
2023/10/09 12:31:59;;;;;;;13.30;3.88;;;17.10;99.90;;;;;;5032620;28;20044;-62
2023/10/09 12:34:29;;;;;;;8.05;4.00;;;17.20;99.90;;;;;;5021778;28;20087;-62
2023/10/09 12:37:00;;;;;;;13.45;4.30;;;17.20;99.90;;;;;;5042160;28;20716;-62
2023/10/09 12:39:33;;;;;;;10.45;3.80;;;17.20;99.90;;;;;;5028445;28;20048;-62
2023/10/09 12:42:08;;;;;;;12.65;4.03;;;17.30;99.90;;;;;;5019119;28;20063;-62
2023/10/09 12:44:38;;;;;;;15.65;4.03;;;17.30;99.90;;;;;;5041164;28;20043;-63
2023/10/09 12:47:11;;;;;;;14.50;4.25;;;17.30;99.90;;;;;;5040207;28;20045;-63
2023/10/09 12:49:40;;;;;;;13.73;3.95;;;17.30;99.90;;;;;;5012262;28;20687;-63
2023/10/09 12:52:19;;;;;;;11.70;3.97;;;17.30;99.90;;;;;;5042186;28;21377;-63
2023/10/09 12:54:46;;;;;;;12.20;3.78;;;17.40;99.90;;;;;;5010370;28;20111;-63
2023/10/09 12:57:13;;;;;;;11.90;3.80;;;17.40;99.90;;;;;;5046246;28;20094;-63
2023/10/09 12:59:45;;;;;;;11.35;3.88;;;17.30;99.90;;;;;;5043594;28;20083;-63
2023/10/09 13:02:30;;;;;;;12.25;3.70;;;17.40;99.90;;;;;;5012783;28;20051;-63
2023/10/09 13:04:57;;;;;;;11.27;3.63;;;17.30;99.90;;;;;;5028745;28;20079;-63
2023/10/09 13:07:23;;;;;;;16.45;4.32;;;17.40;99.90;;;;;;5048509;28;20127;-63
2023/10/09 13:12:34;;;;;;;13.32;3.83;;;17.30;99.90;;;;;;5020920;28;20715;-63
2023/10/09 13:14:59;;;;;;;11.35;3.63;;;17.30;99.90;;;;;;5041587;28;20055;-63
2023/10/09 13:17:26;;;;;;;12.77;3.63;;;17.30;99.90;;;;;;5010750;28;20044;-63
2023/10/09 13:19:53;;;;;;;12.88;3.22;;;17.30;99.90;;;;;;5028816;28;20055;-63
2023/10/09 13:22:18;;;;;;;15.25;3.58;;;17.30;99.90;;;;;;5044528;28;20032;-63
2023/10/09 13:24:48;;;;;;;7.75;3.08;;;17.40;99.90;;;;;;5022846;28;20126;-63
2023/10/09 13:27:21;;;;;;;11.55;3.38;;;17.30;99.90;;;;;;4994535;28;20800;-63
2023/10/09 13:29:47;;;;;;;16.75;3.20;;;17.40;99.90;;;;;;4988646;28;20466;-63
2023/10/09 13:32:14;;;;;;;9.95;4.25;;;17.40;99.90;;;;;;5006591;28;20442;-63
2023/10/09 13:34:47;;;;;;;14.07;3.63;;;17.30;99.90;;;;;;5013531;28;20047;-63
2023/10/09 13:37:13;;;;;;;15.90;3.80;;;17.30;99.90;;;;;;5012700;28;20090;-63
2023/10/09 13:39:51;;;;;;;11.43;3.30;;;17.30;99.90;;;;;;5005246;28;20059;-63
2023/10/09 13:42:17;;;;;;;15.63;3.67;;;17.40;99.90;;;;;;5001283;28;20033;-64
2023/10/09 13:44:43;;;;;;;11.02;3.25;;;17.40;99.90;;;;;;5017014;28;20396;-64
2023/10/09 13:47:18;;;;;;;15.80;3.30;;;17.40;99.90;;;;;;4999858;28;20567;-63
2023/10/09 13:49:53;;;;;;;12.77;4.07;;;17.40;99.90;;;;;;5034983;28;20155;-63
2023/10/09 13:52:19;;;;;;;14.32;3.58;;;17.40;99.90;;;;;;5017737;28;20395;-63
2023/10/09 13:54:49;;;;;;;9.48;3.20;;;17.40;99.90;;;;;;5015992;28;20091;-63
2023/10/09 13:57:15;;;;;;;9.32;3.08;;;17.40;99.90;;;;;;5016806;28;20118;-63
2023/10/09 13:59:43;;;;;;;11.35;3.10;;;17.30;99.90;;;;;;5004815;28;20926;-63
2023/10/09 14:02:09;;;;;;;13.35;3.67;;;17.30;99.90;;;;;;5009344;28;20051;-63
2023/10/09 14:04:36;;;;;;;12.60;3.15;;;17.20;99.90;;;;;;5015231;28;20049;-63
2023/10/09 14:07:05;;;;;;;8.48;2.92;;;17.20;99.90;;;;;;5011206;28;20128;-63
2023/10/09 14:09:31;;;;;;;8.10;2.50;;;17.20;99.90;;;;;;5013124;28;20376;-63
2023/10/09 14:12:09;;;;;;;7.63;2.95;;;17.10;99.90;;;;;;5003484;28;20041;-63
2023/10/09 14:14:49;;;;;;;10.90;2.72;;;17.10;99.90;;;;;;5009488;28;20044;-63
2023/10/09 14:17:25;;;;;;;7.35;3.03;;;17.10;99.90;;;;;;5001249;28;20300;-63
2023/10/09 14:20:00;;;;;;;8.75;2.50;;;17.10;99.90;;;;;;4990095;28;20048;-63
2023/10/09 14:22:26;;;;;;;10.02;2.72;;;17.10;99.90;;;;;;5019652;28;20053;-63
2023/10/09 14:24:56;;;;;;;10.20;2.90;;;17.10;99.90;;;;;;5008544;28;20508;-63
2023/10/09 14:27:27;;;;;;;9.85;2.83;;;17.10;99.90;;;;;;5016092;28;20152;-63
2023/10/09 14:29:59;;;;;;;9.25;2.67;;;17.10;99.90;;;;;;5006807;28;20099;-64
2023/10/09 14:32:28;;;;;;;7.43;2.88;;;17.20;99.90;;;;;;4980351;28;20488;-63
2023/10/09 14:35:00;;;;;;;9.60;2.78;;;17.20;99.90;;;;;;5009513;28;20037;-64
2023/10/09 14:37:31;;;;;;;6.88;2.47;;;17.10;99.90;;;;;;5004723;28;20037;-64
2023/10/09 14:39:58;;;;;;;7.78;2.30;;;17.20;99.90;;;;;;5002135;28;20455;-63
2023/10/09 14:42:27;;;;;;;12.10;3.08;;;17.20;99.90;;;;;;5015955;28;20049;-63
2023/10/09 14:44:55;;;;;;;10.90;2.67;;;17.20;99.90;;;;;;5022015;28;20570;-63
2023/10/09 14:47:21;;;;;;;14.07;2.95;;;17.20;99.90;;;;;;5044663;28;20056;-63
2023/10/09 14:49:50;;;;;;;10.13;2.40;;;17.20;99.90;;;;;;5026397;28;20033;-63
2023/10/09 14:52:16;;;;;;;10.48;2.58;;;17.20;99.90;;;;;;5027944;28;20052;-64
2023/10/09 14:54:44;;;;;;;11.93;2.80;;;17.10;99.90;;;;;;5027584;28;20116;-63
2023/10/09 14:57:14;;;;;;;10.00;2.10;;;17.10;99.90;;;;;;5046198;28;20395;-63
2023/10/09 14:59:40;;;;;;;8.25;2.70;;;17.10;99.90;;;;;;5041048;28;20081;-63
2023/10/09 15:02:07;;;;;;;12.00;2.63;;;17.10;99.90;;;;;;5037011;28;20720;-63
2023/10/09 15:04:36;;;;;;;8.95;2.42;;;17.10;99.90;;;;;;5025504;28;20055;-63
2023/10/09 15:07:06;;;;;;;9.43;2.60;;;17.00;99.90;;;;;;5021856;28;20052;-63
2023/10/09 15:09:34;;;;;;;11.68;2.75;;;17.10;99.90;;;;;;5013916;28;20387;-63
2023/10/09 15:12:00;;;;;;;12.82;3.00;;;17.00;99.90;;;;;;5024088;28;20613;-63
2023/10/09 15:14:26;;;;;;;12.25;2.50;;;17.10;99.90;;;;;;5027084;28;20049;-64
2023/10/09 15:16:52;;;;;;;7.57;2.25;;;17.10;99.90;;;;;;5040555;28;20790;-63
2023/10/09 15:19:18;;;;;;;7.72;2.40;;;17.10;99.90;;;;;;5018026;28;20052;-64
2023/10/09 15:21:43;;;;;;;6.30;2.03;;;17.10;99.90;;;;;;5021471;28;20037;-63
2023/10/09 15:24:21;;;;;;;9.35;3.00;;;17.10;99.90;;;;;;5026819;28;20056;-63
2023/10/09 15:26:53;;;;;;;7.47;1.90;;;17.10;99.90;;;;;;5025728;28;20091;-63
2023/10/09 15:29:23;;;;;;;9.63;2.78;;;17.10;99.90;;;;;;5030411;28;20045;-63
2023/10/09 15:31:50;;;;;;;7.95;2.20;;;17.10;99.90;;;;;;5028661;28;20076;-63